sensor_id;sensor_type;location;lat;lon;timestamp;temperature;humidity
56771;DHT22;42641;59.794;17.616;2022-09-16T00:00:44;11.60;99.90
56771;DHT22;42641;59.794;17.616;2022-09-16T00:03:11;11.70;99.90
56771;DHT22;42641;59.794;17.616;2022-09-16T00:05:46;11.60;99.90
56771;DHT22;42641;59.794;17.616;2022-09-16T00:08:13;11.60;99.90
56771;DHT22;42641;59.794;17.616;2022-09-16T00:10:40;11.60;99.90
56771;DHT22;42641;59.794;17.616;2022-09-16T00:13:06;11.60;99.90
56771;DHT22;42641;59.794;17.616;2022-09-16T00:15:32;11.70;99.90
56771;DHT22;42641;59.794;17.616;2022-09-16T00:17:59;11.60;99.90
56771;DHT22;42641;59.794;17.616;2022-09-16T00:20:25;11.70;99.90
56771;DHT22;42641;59.794;17.616;2022-09-16T00:22:52;11.60;99.90
56771;DHT22;42641;59.794;17.616;2022-09-16T00:25:19;11.70;99.90
56771;DHT22;42641;59.794;17.616;2022-09-16T00:27:48;11.70;99.90
56771;DHT22;42641;59.794;17.616;2022-09-16T00:30:15;11.70;99.90
56771;DHT22;42641;59.794;17.616;2022-09-16T00:32:43;11.60;99.90
56771;DHT22;42641;59.794;17.616;2022-09-16T00:35:09;11.60;99.90
56771;DHT22;42641;59.794;17.616;2022-09-16T00:37:36;11.60;99.90
56771;DHT22;42641;59.794;17.616;2022-09-16T00:40:02;11.60;99.90
56771;DHT22;42641;59.794;17.616;2022-09-16T00:42:29;11.60;99.90
56771;DHT22;42641;59.794;17.616;2022-09-16T00:45:04;11.60;99.90
56771;DHT22;42641;59.794;17.616;2022-09-16T00:47:41;11.60;99.90
56771;DHT22;42641;59.794;17.616;2022-09-16T00:50:10;11.60;99.90
56771;DHT22;42641;59.794;17.616;2022-09-16T00:52:39;11.60;99.90
56771;DHT22;42641;59.794;17.616;2022-09-16T00:55:08;11.60;99.90
56771;DHT22;42641;59.794;17.616;2022-09-16T00:57:35;11.60;99.90
56771;DHT22;42641;59.794;17.616;2022-09-16T01:00:03;11.60;99.90
56771;DHT22;42641;59.794;17.616;2022-09-16T01:02:31;11.60;99.90
56771;DHT22;42641;59.794;17.616;2022-09-16T01:07:33;11.60;99.90
56771;DHT22;42641;59.794;17.616;2022-09-16T01:10:00;11.60;99.90
56771;DHT22;42641;59.794;17.616;2022-09-16T01:12:27;11.60;99.90
56771;DHT22;42641;59.794;17.616;2022-09-16T01:14:55;11.60;99.90
56771;DHT22;42641;59.794;17.616;2022-09-16T01:17:41;11.60;99.90
56771;DHT22;42641;59.794;17.616;2022-09-16T01:23:38;11.60;99.90
56771;DHT22;42641;59.794;17.616;2022-09-16T01:31:24;11.60;99.90
56771;DHT22;42641;59.794;17.616;2022-09-16T01:34:07;11.60;99.90
56771;DHT22;42641;59.794;17.616;2022-09-16T01:37:04;11.60;99.90
56771;DHT22;42641;59.794;17.616;2022-09-16T01:40:05;11.60;99.90
56771;DHT22;42641;59.794;17.616;2022-09-16T01:45:16;11.60;99.90
56771;DHT22;42641;59.794;17.616;2022-09-16T01:50:36;11.60;99.90
56771;DHT22;42641;59.794;17.616;2022-09-16T01:53:21;11.70;99.90
56771;DHT22;42641;59.794;17.616;2022-09-16T01:57:07;11.70;99.90
56771;DHT22;42641;59.794;17.616;2022-09-16T01:59:04;11.70;99.90
56771;DHT22;42641;59.794;17.616;2022-09-16T02:01:56;11.70;99.90
56771;DHT22;42641;59.794;17.616;2022-09-16T02:04:29;11.70;99.90
56771;DHT22;42641;59.794;17.616;2022-09-16T02:06:58;11.70;99.90
56771;DHT22;42641;59.794;17.616;2022-09-16T02:09:36;11.70;99.90
56771;DHT22;42641;59.794;17.616;2022-09-16T02:12:12;11.70;99.90
56771;DHT22;42641;59.794;17.616;2022-09-16T02:14:42;11.70;99.90
56771;DHT22;42641;59.794;17.616;2022-09-16T02:17:11;11.80;99.90
56771;DHT22;42641;59.794;17.616;2022-09-16T02:19:46;11.80;99.90
56771;DHT22;42641;59.794;17.616;2022-09-16T02:22:21;11.80;99.90
56771;DHT22;42641;59.794;17.616;2022-09-16T02:24:51;11.80;99.90
56771;DHT22;42641;59.794;17.616;2022-09-16T02:27:20;11.80;99.90
56771;DHT22;42641;59.794;17.616;2022-09-16T02:29:58;11.80;99.90
56771;DHT22;42641;59.794;17.616;2022-09-16T02:32:27;11.80;99.90
56771;DHT22;42641;59.794;17.616;2022-09-16T02:34:57;11.80;99.90
56771;DHT22;42641;59.794;17.616;2022-09-16T02:37:32;11.80;99.90
56771;DHT22;42641;59.794;17.616;2022-09-16T02:40:05;11.90;99.90
56771;DHT22;42641;59.794;17.616;2022-09-16T02:42:33;11.90;99.90
56771;DHT22;42641;59.794;17.616;2022-09-16T02:45:00;11.90;99.90
56771;DHT22;42641;59.794;17.616;2022-09-16T02:47:45;11.90;99.90
56771;DHT22;42641;59.794;17.616;2022-09-16T02:50:22;11.90;99.90
56771;DHT22;42641;59.794;17.616;2022-09-16T02:53:07;11.90;99.90
56771;DHT22;42641;59.794;17.616;2022-09-16T02:58:17;11.90;99.90
56771;DHT22;42641;59.794;17.616;2022-09-16T03:00:49;11.90;99.90
56771;DHT22;42641;59.794;17.616;2022-09-16T03:03:17;11.90;99.90
56771;DHT22;42641;59.794;17.616;2022-09-16T03:06:05;11.90;99.90
56771;DHT22;42641;59.794;17.616;2022-09-16T03:08:32;11.90;99.90
56771;DHT22;42641;59.794;17.616;2022-09-16T03:19:55;11.90;99.90
56771;DHT22;42641;59.794;17.616;2022-09-16T03:31:10;11.80;99.90
56771;DHT22;42641;59.794;17.616;2022-09-16T03:34:16;11.80;99.90
56771;DHT22;42641;59.794;17.616;2022-09-16T03:36:44;11.80;99.90
56771;DHT22;42641;59.794;17.616;2022-09-16T03:39:13;11.80;99.90
56771;DHT22;42641;59.794;17.616;2022-09-16T03:41:39;11.80;99.90
56771;DHT22;42641;59.794;17.616;2022-09-16T03:44:06;11.80;99.90
56771;DHT22;42641;59.794;17.616;2022-09-16T03:46:33;11.80;99.90
56771;DHT22;42641;59.794;17.616;2022-09-16T03:49:00;11.80;99.90
56771;DHT22;42641;59.794;17.616;2022-09-16T03:51:26;11.80;99.90
56771;DHT22;42641;59.794;17.616;2022-09-16T03:53:53;11.80;99.90
56771;DHT22;42641;59.794;17.616;2022-09-16T03:56:22;11.80;99.90
56771;DHT22;42641;59.794;17.616;2022-09-16T03:58:49;11.80;99.90
56771;DHT22;42641;59.794;17.616;2022-09-16T04:01:15;11.80;99.90
56771;DHT22;42641;59.794;17.616;2022-09-16T04:03:42;11.80;99.90
56771;DHT22;42641;59.794;17.616;2022-09-16T04:06:08;11.90;99.90
56771;DHT22;42641;59.794;17.616;2022-09-16T04:08:35;11.90;99.90
56771;DHT22;42641;59.794;17.616;2022-09-16T04:11:04;11.90;99.90
56771;DHT22;42641;59.794;17.616;2022-09-16T04:13:33;11.90;99.90
56771;DHT22;42641;59.794;17.616;2022-09-16T04:16:01;11.80;99.90
56771;DHT22;42641;59.794;17.616;2022-09-16T04:18:32;11.80;99.90
56771;DHT22;42641;59.794;17.616;2022-09-16T04:21:01;11.80;99.90
56771;DHT22;42641;59.794;17.616;2022-09-16T04:23:28;11.70;99.90
56771;DHT22;42641;59.794;17.616;2022-09-16T04:25:56;11.80;99.90
56771;DHT22;42641;59.794;17.616;2022-09-16T04:28:23;11.70;99.90
56771;DHT22;42641;59.794;17.616;2022-09-16T04:30:50;11.70;99.90
56771;DHT22;42641;59.794;17.616;2022-09-16T04:33:17;11.70;99.90
56771;DHT22;42641;59.794;17.616;2022-09-16T04:35:43;11.70;99.90
56771;DHT22;42641;59.794;17.616;2022-09-16T04:38:10;11.70;99.90
56771;DHT22;42641;59.794;17.616;2022-09-16T04:40:36;11.80;99.90
56771;DHT22;42641;59.794;17.616;2022-09-16T04:43:10;11.80;99.90
56771;DHT22;42641;59.794;17.616;2022-09-16T04:45:39;11.80;99.90
56771;DHT22;42641;59.794;17.616;2022-09-16T04:48:05;11.80;99.90
56771;DHT22;42641;59.794;17.616;2022-09-16T04:50:31;11.80;99.90
56771;DHT22;42641;59.794;17.616;2022-09-16T04:52:58;11.80;99.90
56771;DHT22;42641;59.794;17.616;2022-09-16T04:55:24;11.80;99.90
56771;DHT22;42641;59.794;17.616;2022-09-16T04:57:51;11.70;99.90
56771;DHT22;42641;59.794;17.616;2022-09-16T05:00:17;11.70;99.90
56771;DHT22;42641;59.794;17.616;2022-09-16T05:02:44;11.70;99.90
56771;DHT22;42641;59.794;17.616;2022-09-16T05:05:11;11.70;99.90
56771;DHT22;42641;59.794;17.616;2022-09-16T05:07:37;11.70;99.90
56771;DHT22;42641;59.794;17.616;2022-09-16T05:10:04;11.70;99.90
56771;DHT22;42641;59.794;17.616;2022-09-16T05:12:31;11.80;99.90
56771;DHT22;42641;59.794;17.616;2022-09-16T05:14:57;11.70;99.90
56771;DHT22;42641;59.794;17.616;2022-09-16T05:17:24;11.70;99.90
56771;DHT22;42641;59.794;17.616;2022-09-16T05:19:50;11.70;99.90
56771;DHT22;42641;59.794;17.616;2022-09-16T05:22:16;11.70;99.90
56771;DHT22;42641;59.794;17.616;2022-09-16T05:24:43;11.70;99.90
56771;DHT22;42641;59.794;17.616;2022-09-16T05:27:09;11.70;99.90
56771;DHT22;42641;59.794;17.616;2022-09-16T05:29:36;11.80;99.90
56771;DHT22;42641;59.794;17.616;2022-09-16T05:32:02;11.80;99.90
56771;DHT22;42641;59.794;17.616;2022-09-16T05:34:29;11.90;99.90
56771;DHT22;42641;59.794;17.616;2022-09-16T05:36:55;11.90;99.90
56771;DHT22;42641;59.794;17.616;2022-09-16T05:39:22;11.90;99.90
56771;DHT22;42641;59.794;17.616;2022-09-16T05:41:53;12.00;99.90
56771;DHT22;42641;59.794;17.616;2022-09-16T05:44:19;12.00;99.90
56771;DHT22;42641;59.794;17.616;2022-09-16T05:46:46;11.90;99.90
56771;DHT22;42641;59.794;17.616;2022-09-16T05:49:12;12.00;99.90
56771;DHT22;42641;59.794;17.616;2022-09-16T05:51:39;11.90;99.90
56771;DHT22;42641;59.794;17.616;2022-09-16T05:54:07;11.90;99.90
56771;DHT22;42641;59.794;17.616;2022-09-16T05:56:33;11.90;99.90
56771;DHT22;42641;59.794;17.616;2022-09-16T05:59:00;11.90;99.90
56771;DHT22;42641;59.794;17.616;2022-09-16T06:01:33;12.00;99.90
56771;DHT22;42641;59.794;17.616;2022-09-16T06:04:01;12.10;99.90
56771;DHT22;42641;59.794;17.616;2022-09-16T06:06:36;12.20;99.90
56771;DHT22;42641;59.794;17.616;2022-09-16T06:09:15;12.20;99.90
56771;DHT22;42641;59.794;17.616;2022-09-16T06:11:44;12.30;99.90
56771;DHT22;42641;59.794;17.616;2022-09-16T06:14:11;12.40;99.90
56771;DHT22;42641;59.794;17.616;2022-09-16T06:16:39;12.40;99.90
56771;DHT22;42641;59.794;17.616;2022-09-16T06:19:09;12.50;99.90
56771;DHT22;42641;59.794;17.616;2022-09-16T06:21:38;12.60;99.90
56771;DHT22;42641;59.794;17.616;2022-09-16T06:24:06;12.60;99.90
56771;DHT22;42641;59.794;17.616;2022-09-16T06:26:37;12.70;99.90
56771;DHT22;42641;59.794;17.616;2022-09-16T06:29:05;12.70;99.90
56771;DHT22;42641;59.794;17.616;2022-09-16T06:31:33;12.70;99.90
56771;DHT22;42641;59.794;17.616;2022-09-16T06:33:59;12.80;99.90
56771;DHT22;42641;59.794;17.616;2022-09-16T06:36:28;13.00;99.90
56771;DHT22;42641;59.794;17.616;2022-09-16T06:38:55;13.10;99.90
56771;DHT22;42641;59.794;17.616;2022-09-16T06:41:22;13.20;99.90
56771;DHT22;42641;59.794;17.616;2022-09-16T06:43:49;13.20;99.90
56771;DHT22;42641;59.794;17.616;2022-09-16T06:46:23;13.30;99.90
56771;DHT22;42641;59.794;17.616;2022-09-16T06:48:52;13.40;99.90
56771;DHT22;42641;59.794;17.616;2022-09-16T06:51:24;13.30;99.90
56771;DHT22;42641;59.794;17.616;2022-09-16T06:53:52;13.30;99.90
56771;DHT22;42641;59.794;17.616;2022-09-16T06:56:20;13.40;99.90
56771;DHT22;42641;59.794;17.616;2022-09-16T06:58:48;13.50;99.90
56771;DHT22;42641;59.794;17.616;2022-09-16T07:01:21;13.60;99.90
56771;DHT22;42641;59.794;17.616;2022-09-16T07:03:49;13.50;99.90
56771;DHT22;42641;59.794;17.616;2022-09-16T07:06:17;13.50;99.90
56771;DHT22;42641;59.794;17.616;2022-09-16T07:08:44;13.50;99.90
56771;DHT22;42641;59.794;17.616;2022-09-16T07:11:16;13.60;99.90
56771;DHT22;42641;59.794;17.616;2022-09-16T07:13:44;13.60;99.90
56771;DHT22;42641;59.794;17.616;2022-09-16T07:16:17;13.70;99.90
56771;DHT22;42641;59.794;17.616;2022-09-16T07:18:44;13.60;99.90
56771;DHT22;42641;59.794;17.616;2022-09-16T07:21:17;13.60;99.90
56771;DHT22;42641;59.794;17.616;2022-09-16T07:23:44;13.60;99.90
56771;DHT22;42641;59.794;17.616;2022-09-16T07:26:16;13.50;99.90
56771;DHT22;42641;59.794;17.616;2022-09-16T07:28:44;13.50;99.90
56771;DHT22;42641;59.794;17.616;2022-09-16T07:31:16;13.60;99.90
56771;DHT22;42641;59.794;17.616;2022-09-16T07:33:45;13.60;99.90
56771;DHT22;42641;59.794;17.616;2022-09-16T07:36:14;13.70;99.90
56771;DHT22;42641;59.794;17.616;2022-09-16T07:38:41;13.80;99.90
56771;DHT22;42641;59.794;17.616;2022-09-16T07:41:19;13.90;99.90
56771;DHT22;42641;59.794;17.616;2022-09-16T07:43:46;13.90;99.90
56771;DHT22;42641;59.794;17.616;2022-09-16T07:46:14;13.80;99.90
56771;DHT22;42641;59.794;17.616;2022-09-16T07:48:45;13.80;99.90
56771;DHT22;42641;59.794;17.616;2022-09-16T07:51:16;13.80;99.90
56771;DHT22;42641;59.794;17.616;2022-09-16T07:53:44;13.70;99.90
56771;DHT22;42641;59.794;17.616;2022-09-16T07:56:19;13.80;99.90
56771;DHT22;42641;59.794;17.616;2022-09-16T07:58:48;14.00;99.90
56771;DHT22;42641;59.794;17.616;2022-09-16T08:01:15;14.10;99.90
56771;DHT22;42641;59.794;17.616;2022-09-16T08:03:43;14.20;99.90
56771;DHT22;42641;59.794;17.616;2022-09-16T08:06:12;14.30;99.90
56771;DHT22;42641;59.794;17.616;2022-09-16T08:08:40;14.30;99.90
56771;DHT22;42641;59.794;17.616;2022-09-16T08:11:07;14.30;99.90
56771;DHT22;42641;59.794;17.616;2022-09-16T08:13:36;14.30;99.90
56771;DHT22;42641;59.794;17.616;2022-09-16T08:16:05;14.20;99.90
56771;DHT22;42641;59.794;17.616;2022-09-16T08:18:32;14.20;99.90
56771;DHT22;42641;59.794;17.616;2022-09-16T08:21:14;14.20;99.90
56771;DHT22;42641;59.794;17.616;2022-09-16T08:23:41;14.40;99.90
56771;DHT22;42641;59.794;17.616;2022-09-16T08:26:08;14.50;99.90
56771;DHT22;42641;59.794;17.616;2022-09-16T08:28:37;14.70;99.90
56771;DHT22;42641;59.794;17.616;2022-09-16T08:31:04;14.80;99.90
56771;DHT22;42641;59.794;17.616;2022-09-16T08:33:31;14.90;99.90
56771;DHT22;42641;59.794;17.616;2022-09-16T08:38:31;14.90;99.90
56771;DHT22;42641;59.794;17.616;2022-09-16T08:46:54;15.10;99.90
56771;DHT22;42641;59.794;17.616;2022-09-16T08:49:42;15.20;99.90
56771;DHT22;42641;59.794;17.616;2022-09-16T08:52:15;15.30;99.90
56771;DHT22;42641;59.794;17.616;2022-09-16T08:54:46;15.30;99.90
56771;DHT22;42641;59.794;17.616;2022-09-16T08:57:21;15.20;99.90
56771;DHT22;42641;59.794;17.616;2022-09-16T08:59:51;15.10;99.90
56771;DHT22;42641;59.794;17.616;2022-09-16T09:02:40;15.20;99.90
56771;DHT22;42641;59.794;17.616;2022-09-16T09:08:18;15.50;99.90
56771;DHT22;42641;59.794;17.616;2022-09-16T09:10:58;15.40;99.90
56771;DHT22;42641;59.794;17.616;2022-09-16T09:13:45;15.50;99.90
56771;DHT22;42641;59.794;17.616;2022-09-16T09:16:39;15.70;99.90
56771;DHT22;42641;59.794;17.616;2022-09-16T09:19:19;15.70;99.90
56771;DHT22;42641;59.794;17.616;2022-09-16T09:22:12;16.00;99.90
56771;DHT22;42641;59.794;17.616;2022-09-16T09:30:26;16.40;99.90
56771;DHT22;42641;59.794;17.616;2022-09-16T09:35:52;16.20;99.90
56771;DHT22;42641;59.794;17.616;2022-09-16T09:41:24;16.00;99.90
56771;DHT22;42641;59.794;17.616;2022-09-16T09:44:06;15.90;99.90
56771;DHT22;42641;59.794;17.616;2022-09-16T09:46:43;15.80;99.90
56771;DHT22;42641;59.794;17.616;2022-09-16T09:49:52;15.80;99.90
56771;DHT22;42641;59.794;17.616;2022-09-16T09:52:27;15.80;99.90
56771;DHT22;42641;59.794;17.616;2022-09-16T09:55:05;15.70;99.90
56771;DHT22;42641;59.794;17.616;2022-09-16T10:00:27;15.60;99.90
56771;DHT22;42641;59.794;17.616;2022-09-16T10:03:03;15.50;99.90
56771;DHT22;42641;59.794;17.616;2022-09-16T10:05:30;15.50;99.90
56771;DHT22;42641;59.794;17.616;2022-09-16T10:08:01;15.60;99.90
56771;DHT22;42641;59.794;17.616;2022-09-16T10:10:31;15.70;99.90
56771;DHT22;42641;59.794;17.616;2022-09-16T10:13:09;15.90;99.90
56771;DHT22;42641;59.794;17.616;2022-09-16T10:15:36;15.90;99.90
56771;DHT22;42641;59.794;17.616;2022-09-16T10:18:28;15.90;99.90
56771;DHT22;42641;59.794;17.616;2022-09-16T10:21:10;16.20;99.90
56771;DHT22;42641;59.794;17.616;2022-09-16T10:23:37;16.40;99.90
56771;DHT22;42641;59.794;17.616;2022-09-16T10:31:27;16.30;99.90
56771;DHT22;42641;59.794;17.616;2022-09-16T10:33:54;16.10;99.90
56771;DHT22;42641;59.794;17.616;2022-09-16T10:36:22;15.90;99.90
56771;DHT22;42641;59.794;17.616;2022-09-16T10:38:55;15.80;99.90
56771;DHT22;42641;59.794;17.616;2022-09-16T10:41:24;15.80;99.90
56771;DHT22;42641;59.794;17.616;2022-09-16T10:43:57;15.80;99.90
56771;DHT22;42641;59.794;17.616;2022-09-16T10:46:24;16.10;99.90
56771;DHT22;42641;59.794;17.616;2022-09-16T10:48:58;16.10;99.90
56771;DHT22;42641;59.794;17.616;2022-09-16T10:51:27;15.80;99.90
56771;DHT22;42641;59.794;17.616;2022-09-16T10:54:00;15.60;99.90
56771;DHT22;42641;59.794;17.616;2022-09-16T10:56:29;15.40;99.90
56771;DHT22;42641;59.794;17.616;2022-09-16T10:59:04;15.40;99.90
56771;DHT22;42641;59.794;17.616;2022-09-16T11:02:12;15.40;99.90
56771;DHT22;42641;59.794;17.616;2022-09-16T11:07:27;15.20;99.90
56771;DHT22;42641;59.794;17.616;2022-09-16T11:13:23;14.80;99.90
56771;DHT22;42641;59.794;17.616;2022-09-16T11:21:08;14.40;99.90
56771;DHT22;42641;59.794;17.616;2022-09-16T11:43:37;13.80;99.90
56771;DHT22;42641;59.794;17.616;2022-09-16T11:46:20;13.80;99.90
56771;DHT22;42641;59.794;17.616;2022-09-16T11:57:44;13.60;99.90
56771;DHT22;42641;59.794;17.616;2022-09-16T12:00:14;13.50;99.90
56771;DHT22;42641;59.794;17.616;2022-09-16T12:03:10;13.40;99.90
56771;DHT22;42641;59.794;17.616;2022-09-16T12:05:44;13.40;99.90
56771;DHT22;42641;59.794;17.616;2022-09-16T12:08:23;13.30;99.90
56771;DHT22;42641;59.794;17.616;2022-09-16T12:14:09;13.30;99.90
56771;DHT22;42641;59.794;17.616;2022-09-16T12:16:16;13.30;99.90
56771;DHT22;42641;59.794;17.616;2022-09-16T12:18:54;13.40;99.90
56771;DHT22;42641;59.794;17.616;2022-09-16T12:21:41;13.60;99.90
56771;DHT22;42641;59.794;17.616;2022-09-16T12:27:00;15.20;99.90
56771;DHT22;42641;59.794;17.616;2022-09-16T12:29:48;15.60;99.90
56771;DHT22;42641;59.794;17.616;2022-09-16T12:32:29;15.50;99.90
56771;DHT22;42641;59.794;17.616;2022-09-16T12:35:01;15.10;99.90
56771;DHT22;42641;59.794;17.616;2022-09-16T12:37:47;14.90;99.90
56771;DHT22;42641;59.794;17.616;2022-09-16T12:40:24;14.80;99.90
56771;DHT22;42641;59.794;17.616;2022-09-16T12:43:13;14.70;99.90
56771;DHT22;42641;59.794;17.616;2022-09-16T12:49:43;14.90;99.90
56771;DHT22;42641;59.794;17.616;2022-09-16T13:00:24;17.00;99.90
56771;DHT22;42641;59.794;17.616;2022-09-16T13:02:59;17.40;99.90
56771;DHT22;42641;59.794;17.616;2022-09-16T13:05:37;16.80;99.90
56771;DHT22;42641;59.794;17.616;2022-09-16T13:08:20;16.30;99.90
56771;DHT22;42641;59.794;17.616;2022-09-16T13:11:39;15.80;99.90
56771;DHT22;42641;59.794;17.616;2022-09-16T13:13:46;15.40;99.90
56771;DHT22;42641;59.794;17.616;2022-09-16T13:16:13;15.00;99.90
56771;DHT22;42641;59.794;17.616;2022-09-16T13:18:44;14.90;99.90
56771;DHT22;42641;59.794;17.616;2022-09-16T13:21:26;14.80;99.90
56771;DHT22;42641;59.794;17.616;2022-09-16T13:24:13;14.60;99.90
56771;DHT22;42641;59.794;17.616;2022-09-16T13:26:43;14.40;99.90
56771;DHT22;42641;59.794;17.616;2022-09-16T13:31:49;14.20;99.90
56771;DHT22;42641;59.794;17.616;2022-09-16T13:34:16;14.30;99.90
56771;DHT22;42641;59.794;17.616;2022-09-16T13:36:44;14.40;99.90
56771;DHT22;42641;59.794;17.616;2022-09-16T13:39:13;14.50;99.90
56771;DHT22;42641;59.794;17.616;2022-09-16T13:52:28;14.90;99.90
56771;DHT22;42641;59.794;17.616;2022-09-16T13:54:56;15.10;99.90
56771;DHT22;42641;59.794;17.616;2022-09-16T13:57:38;15.20;99.90
56771;DHT22;42641;59.794;17.616;2022-09-16T14:00:14;15.30;99.90
56771;DHT22;42641;59.794;17.616;2022-09-16T14:03:06;15.50;99.90
56771;DHT22;42641;59.794;17.616;2022-09-16T14:14:12;15.80;99.90
56771;DHT22;42641;59.794;17.616;2022-09-16T14:16:41;16.00;99.90
56771;DHT22;42641;59.794;17.616;2022-09-16T14:21:41;15.90;99.90
56771;DHT22;42641;59.794;17.616;2022-09-16T14:24:18;16.00;99.90
56771;DHT22;42641;59.794;17.616;2022-09-16T14:29:17;16.10;99.90
56771;DHT22;42641;59.794;17.616;2022-09-16T14:31:44;16.10;99.90
56771;DHT22;42641;59.794;17.616;2022-09-16T14:34:18;16.20;99.90
56771;DHT22;42641;59.794;17.616;2022-09-16T14:36:47;16.10;99.90
56771;DHT22;42641;59.794;17.616;2022-09-16T14:39:16;16.10;99.90
56771;DHT22;42641;59.794;17.616;2022-09-16T14:41:58;16.00;99.90
56771;DHT22;42641;59.794;17.616;2022-09-16T14:44:38;15.70;99.90
56771;DHT22;42641;59.794;17.616;2022-09-16T14:47:18;15.30;99.90
56771;DHT22;42641;59.794;17.616;2022-09-16T14:49:49;14.90;99.90
56771;DHT22;42641;59.794;17.616;2022-09-16T14:52:24;14.30;99.90
56771;DHT22;42641;59.794;17.616;2022-09-16T14:54:51;13.90;99.90
56771;DHT22;42641;59.794;17.616;2022-09-16T14:57:28;13.80;99.90
56771;DHT22;42641;59.794;17.616;2022-09-16T15:00:01;13.70;99.90
56771;DHT22;42641;59.794;17.616;2022-09-16T15:02:34;13.70;99.90
56771;DHT22;42641;59.794;17.616;2022-09-16T15:05:20;13.80;99.90
56771;DHT22;42641;59.794;17.616;2022-09-16T15:07:52;14.00;99.90
56771;DHT22;42641;59.794;17.616;2022-09-16T15:10:22;14.10;99.90
56771;DHT22;42641;59.794;17.616;2022-09-16T15:13:26;14.10;99.90
56771;DHT22;42641;59.794;17.616;2022-09-16T15:15:57;14.20;99.90
56771;DHT22;42641;59.794;17.616;2022-09-16T15:18:31;14.40;99.90
56771;DHT22;42641;59.794;17.616;2022-09-16T15:23:34;14.50;99.90
56771;DHT22;42641;59.794;17.616;2022-09-16T15:28:49;14.60;99.90
56771;DHT22;42641;59.794;17.616;2022-09-16T15:31:38;14.50;99.90
56771;DHT22;42641;59.794;17.616;2022-09-16T15:36:46;14.60;99.90
56771;DHT22;42641;59.794;17.616;2022-09-16T15:39:28;14.60;99.90
56771;DHT22;42641;59.794;17.616;2022-09-16T15:42:15;14.60;99.90
56771;DHT22;42641;59.794;17.616;2022-09-16T15:44:52;14.50;99.90
56771;DHT22;42641;59.794;17.616;2022-09-16T15:47:26;14.50;99.90
56771;DHT22;42641;59.794;17.616;2022-09-16T15:50:15;14.50;99.90
56771;DHT22;42641;59.794;17.616;2022-09-16T15:53:13;14.50;99.90
56771;DHT22;42641;59.794;17.616;2022-09-16T15:55:54;14.50;99.90
56771;DHT22;42641;59.794;17.616;2022-09-16T15:58:36;14.40;99.90
56771;DHT22;42641;59.794;17.616;2022-09-16T16:01:15;14.50;99.90
56771;DHT22;42641;59.794;17.616;2022-09-16T16:06:10;14.40;99.90
56771;DHT22;42641;59.794;17.616;2022-09-16T16:11:14;14.30;99.90
56771;DHT22;42641;59.794;17.616;2022-09-16T16:13:41;14.30;99.90
56771;DHT22;42641;59.794;17.616;2022-09-16T16:16:10;14.30;99.90
56771;DHT22;42641;59.794;17.616;2022-09-16T16:18:38;14.30;99.90
56771;DHT22;42641;59.794;17.616;2022-09-16T16:21:09;14.30;99.90
56771;DHT22;42641;59.794;17.616;2022-09-16T16:23:37;14.30;99.90
56771;DHT22;42641;59.794;17.616;2022-09-16T16:26:05;14.30;99.90
56771;DHT22;42641;59.794;17.616;2022-09-16T16:28:33;14.30;99.90
56771;DHT22;42641;59.794;17.616;2022-09-16T16:33:35;14.30;99.90
56771;DHT22;42641;59.794;17.616;2022-09-16T16:36:02;14.30;99.90
56771;DHT22;42641;59.794;17.616;2022-09-16T16:38:29;14.20;99.90
56771;DHT22;42641;59.794;17.616;2022-09-16T16:40:58;14.20;99.90
56771;DHT22;42641;59.794;17.616;2022-09-16T16:43:33;14.20;99.90
56771;DHT22;42641;59.794;17.616;2022-09-16T16:46:20;14.10;99.90
56771;DHT22;42641;59.794;17.616;2022-09-16T16:48:47;14.10;99.90
56771;DHT22;42641;59.794;17.616;2022-09-16T16:51:14;14.00;99.90
56771;DHT22;42641;59.794;17.616;2022-09-16T16:53:40;14.00;99.90
56771;DHT22;42641;59.794;17.616;2022-09-16T16:56:11;13.90;99.90
56771;DHT22;42641;59.794;17.616;2022-09-16T16:58:38;13.90;99.90
56771;DHT22;42641;59.794;17.616;2022-09-16T17:01:16;13.90;99.90
56771;DHT22;42641;59.794;17.616;2022-09-16T17:03:44;13.90;99.90
56771;DHT22;42641;59.794;17.616;2022-09-16T17:06:11;13.90;99.90
56771;DHT22;42641;59.794;17.616;2022-09-16T17:08:38;13.80;99.90
56771;DHT22;42641;59.794;17.616;2022-09-16T17:13:32;13.70;99.90
56771;DHT22;42641;59.794;17.616;2022-09-16T17:15:59;13.70;99.90
56771;DHT22;42641;59.794;17.616;2022-09-16T17:18:25;13.60;99.90
56771;DHT22;42641;59.794;17.616;2022-09-16T17:21:07;13.40;99.90
56771;DHT22;42641;59.794;17.616;2022-09-16T17:23:35;13.40;99.90
56771;DHT22;42641;59.794;17.616;2022-09-16T17:26:02;13.30;99.90
56771;DHT22;42641;59.794;17.616;2022-09-16T17:28:29;13.30;99.90
56771;DHT22;42641;59.794;17.616;2022-09-16T17:30:55;13.20;99.90
56771;DHT22;42641;59.794;17.616;2022-09-16T17:33:22;13.20;99.90
56771;DHT22;42641;59.794;17.616;2022-09-16T17:36:03;13.10;99.90
56771;DHT22;42641;59.794;17.616;2022-09-16T17:38:29;13.10;99.90
56771;DHT22;42641;59.794;17.616;2022-09-16T17:41:07;13.10;99.90
56771;DHT22;42641;59.794;17.616;2022-09-16T17:43:35;13.10;99.90
56771;DHT22;42641;59.794;17.616;2022-09-16T17:46:04;13.00;99.90
56771;DHT22;42641;59.794;17.616;2022-09-16T17:48:31;12.90;99.90
56771;DHT22;42641;59.794;17.616;2022-09-16T17:50:58;12.90;99.90
56771;DHT22;42641;59.794;17.616;2022-09-16T17:53:25;12.90;99.90
56771;DHT22;42641;59.794;17.616;2022-09-16T17:55:51;13.00;99.90
56771;DHT22;42641;59.794;17.616;2022-09-16T17:58:18;12.90;99.90
56771;DHT22;42641;59.794;17.616;2022-09-16T18:00:44;13.00;99.90
56771;DHT22;42641;59.794;17.616;2022-09-16T18:03:11;13.00;99.90
56771;DHT22;42641;59.794;17.616;2022-09-16T18:05:38;12.90;99.90
56771;DHT22;42641;59.794;17.616;2022-09-16T18:08:05;12.90;99.90
56771;DHT22;42641;59.794;17.616;2022-09-16T18:10:31;12.90;99.90
56771;DHT22;42641;59.794;17.616;2022-09-16T18:12:58;12.90;99.90
56771;DHT22;42641;59.794;17.616;2022-09-16T18:15:25;12.90;99.90
56771;DHT22;42641;59.794;17.616;2022-09-16T18:17:53;12.80;99.90
56771;DHT22;42641;59.794;17.616;2022-09-16T18:20:19;12.70;99.90
56771;DHT22;42641;59.794;17.616;2022-09-16T18:22:46;12.70;99.90
56771;DHT22;42641;59.794;17.616;2022-09-16T18:25:13;12.70;99.90
56771;DHT22;42641;59.794;17.616;2022-09-16T18:27:39;12.60;99.90
56771;DHT22;42641;59.794;17.616;2022-09-16T18:30:07;12.60;99.90
56771;DHT22;42641;59.794;17.616;2022-09-16T18:32:33;12.50;99.90
56771;DHT22;42641;59.794;17.616;2022-09-16T18:34:59;12.50;99.90